Crystal Symphony — C6MY5 — position and weather

sailwx.info

Track history (hours):
 
Tides and Currents Weather Stations Pressure Air Temp Water Temp Dewpoint Dewpoint Depression Visibility Wind Speed Wind Dir Waves Ship Positions

Crystal Symphony

Operator: Crystal Cruises

Last reported at 2014-Oct-29 10:31 UTC. Time now 2014-Oct-31 22:58 UTC.
Position N 31°42' W 120°35'.

Length 238 m; draft 8 m.

Type: Ship. MMSI: 309168000.

Date/timePositionNaut miles runAvg speedWind from/ knotsBaromVisibWave heightAir tempDewpointWater temp
2014-Oct-29 10:31N 31°42' W 120°35'1919.6
2014-Oct-29 09:33N 31°48' W 120°14'2019.9
2014-Oct-29 08:33N 31°54' W 119°51'2020.1
2014-Oct-29 07:33N 32°00' W 119°29'2020.0
2014-Oct-29 06:33N 32°06' W 119°06'2019.7
2014-Oct-29 05:33N 32°12' W 118°44'2019.8
2014-Oct-29 04:33N 32°18' W 118°22'2019.6
2014-Oct-29 03:33N 32°24' W 117°60'1918.9
2014-Oct-29 02:33N 32°31' W 117°39'1515.0
2014-Oct-29 01:33N 32°36' W 117°22'1110.8
2014-Oct-29 00:33N 32°43' W 117°13'2 1.7
2014-Oct-28 23:32N 32°43' W 117°10'0 0.0
2014-Oct-28 22:31N 32°43' W 117°10'0 0.0
2014-Oct-28 21:31N 32°43' W 117°10'0 0.0
2014-Oct-28 20:34N 32°43' W 117°10'0 0.0
2014-Oct-28 19:33N 32°43' W 117°10'0 0.0
2014-Oct-28 18:33N 32°43' W 117°10'0 0.0
2014-Oct-28 17:32N 32°43' W 117°10'0 0.0
2014-Oct-28 16:32N 32°43' W 117°10'0 0.0
2014-Oct-28 15:31N 32°43' W 117°10'0 0.0
2014-Oct-28 14:31N 32°43' W 117°10'0 0.0
2014-Oct-28 13:34N 32°43' W 117°10'0 0.0
2014-Oct-28 12:33N 32°43' W 117°10'3 3.3
2014-Oct-28 11:33N 32°42' W 117°14'1313.2
2014-Oct-28 10:34N 32°29' W 117°19'1918.4
2014-Oct-28 09:31N 32°10' W 117°16'3919.8
2014-Oct-28 07:33N 31°32' W 117°06'  
Track history (hours):
 
Tides and Currents Weather Stations Pressure Air Temp Water Temp Dewpoint Dewpoint Depression Visibility Wind Speed Wind Dir Waves Ship Positions

Crystal Symphony

Operator: Crystal Cruises

Last reported at 2014-Oct-29 10:31 UTC. Time now 2014-Oct-31 22:58 UTC.
Position N 31°42' W 120°35'.

Length 238 m; draft 8 m.

Type: Ship. MMSI: 309168000.

Date/timePositionNaut miles runAvg speedWind from/ knotsBaromVisibWave heightAir tempDewpointWater temp
2014-Oct-29 10:31N 31°42' W 120°35'1919.6
2014-Oct-29 09:33N 31°48' W 120°14'2019.9
2014-Oct-29 08:33N 31°54' W 119°51'2020.1
2014-Oct-29 07:33N 32°00' W 119°29'2020.0
2014-Oct-29 06:33N 32°06' W 119°06'2019.7
2014-Oct-29 05:33N 32°12' W 118°44'2019.8
2014-Oct-29 04:33N 32°18' W 118°22'2019.6
2014-Oct-29 03:33N 32°24' W 117°60'1918.9
2014-Oct-29 02:33N 32°31' W 117°39'1515.0
2014-Oct-29 01:33N 32°36' W 117°22'1110.8
2014-Oct-29 00:33N 32°43' W 117°13'2 1.7
2014-Oct-28 23:32N 32°43' W 117°10'0 0.0
2014-Oct-28 22:31N 32°43' W 117°10'0 0.0
2014-Oct-28 21:31N 32°43' W 117°10'0 0.0
2014-Oct-28 20:34N 32°43' W 117°10'0 0.0
2014-Oct-28 19:33N 32°43' W 117°10'0 0.0
2014-Oct-28 18:33N 32°43' W 117°10'0 0.0
2014-Oct-28 17:32N 32°43' W 117°10'0 0.0
2014-Oct-28 16:32N 32°43' W 117°10'0 0.0
2014-Oct-28 15:31N 32°43' W 117°10'0 0.0
2014-Oct-28 14:31N 32°43' W 117°10'0 0.0
2014-Oct-28 13:34N 32°43' W 117°10'0 0.0
2014-Oct-28 12:33N 32°43' W 117°10'3 3.3
2014-Oct-28 11:33N 32°42' W 117°14'1313.2
2014-Oct-28 10:34N 32°29' W 117°19'1918.4
2014-Oct-28 09:31N 32°10' W 117°16'3919.8
2014-Oct-28 07:33N 31°32' W 117°06'  

Dump ship's entire track history